createdAt,value
2022-10-09T00:08:51.908Z,7.41
2022-10-09T00:18:56.405Z,7.22
2022-10-09T00:29:01.645Z,7.23
2022-10-09T00:39:05.327Z,6.93
2022-10-09T00:49:22.113Z,7.10
2022-10-09T00:59:26.267Z,7.01
2022-10-09T01:09:41.224Z,7.05
2022-10-09T01:20:12.478Z,6.89
2022-10-09T01:30:18.021Z,6.85
2022-10-09T01:40:22.709Z,6.83
2022-10-09T01:50:34.029Z,6.95
2022-10-09T02:00:40.626Z,6.94
2022-10-09T02:10:48.159Z,6.69
2022-10-09T02:20:56.887Z,6.58
2022-10-09T02:31:10.331Z,6.50
2022-10-09T02:41:14.440Z,6.87
2022-10-09T02:51:20.427Z,6.58
2022-10-09T03:01:24.566Z,6.62
2022-10-09T03:11:29.899Z,6.77
2022-10-09T03:21:33.777Z,6.65
2022-10-09T03:31:51.691Z,6.79
2022-10-09T03:41:57.794Z,6.52
2022-10-09T03:52:02.915Z,6.53
2022-10-09T04:02:06.579Z,6.53
2022-10-09T04:12:11.697Z,6.73
2022-10-09T04:22:15.364Z,6.57
2022-10-09T04:32:20.338Z,6.55
2022-10-09T04:42:24.066Z,6.26
2022-10-09T04:52:29.318Z,6.08
2022-10-09T05:02:32.990Z,5.96
2022-10-09T05:12:38.087Z,6.00
2022-10-09T05:22:41.676Z,5.89
2022-10-09T05:32:47.030Z,5.77
2022-10-09T05:42:51.649Z,5.90
2022-10-09T05:52:57.011Z,5.94
2022-10-09T06:03:03.380Z,5.83
2022-10-09T06:13:08.555Z,6.43
2022-10-09T06:23:12.163Z,6.43
2022-10-09T06:33:17.758Z,6.57
2022-10-09T06:43:22.739Z,6.74
2022-10-09T06:53:27.862Z,7.15
2022-10-09T07:03:31.864Z,7.40
2022-10-09T07:13:37.243Z,7.72
2022-10-09T07:23:41.024Z,8.13
2022-10-09T07:33:48.496Z,8.62
2022-10-09T07:43:52.482Z,8.92
2022-10-09T07:53:59.918Z,9.29
2022-10-09T08:04:04.883Z,9.57
2022-10-09T08:14:18.772Z,10.30
2022-10-09T08:24:22.883Z,10.54
2022-10-09T08:34:28.140Z,10.54
2022-10-09T08:44:39.041Z,11.06
2022-10-09T08:54:44.826Z,11.51
2022-10-09T09:05:00.381Z,11.56
2022-10-09T09:15:25.797Z,12.10
2022-10-09T09:25:34.406Z,12.30
2022-10-09T09:35:47.966Z,12.47
2022-10-09T09:45:55.073Z,12.96
2022-10-09T09:56:01.072Z,13.27
2022-10-09T10:06:05.626Z,13.76
2022-10-09T10:16:12.291Z,13.96
2022-10-09T10:26:25.381Z,14.39
2022-10-09T10:36:30.436Z,14.60
2022-10-09T10:46:44.433Z,14.94
2022-10-09T10:56:55.198Z,15.23
2022-10-09T11:07:17.791Z,16.26
2022-10-09T11:17:32.607Z,15.74
2022-10-09T11:27:44.065Z,15.86
2022-10-09T11:37:59.911Z,16.07
2022-10-09T11:48:10.014Z,16.07
2022-10-09T11:58:25.902Z,16.21
2022-10-09T12:08:30.155Z,16.21
2022-10-09T12:18:38.725Z,16.33
2022-10-09T12:28:50.086Z,16.48
2022-10-09T12:38:55.631Z,16.62
2022-10-09T12:49:00.900Z,16.42
2022-10-09T12:59:07.442Z,16.52
2022-10-09T13:09:21.857Z,16.47
2022-10-09T13:19:30.416Z,16.51
2022-10-09T13:29:34.568Z,16.65
2022-10-09T13:39:39.806Z,16.68
2022-10-09T13:49:43.705Z,16.84
2022-10-09T13:59:50.713Z,16.72
2022-10-09T14:09:55.329Z,16.94
2022-10-09T14:20:00.778Z,16.98
2022-10-09T14:30:05.768Z,16.89
2022-10-09T14:40:12.450Z,17.14
2022-10-09T14:50:16.982Z,17.02
2022-10-09T15:00:23.131Z,16.86
2022-10-09T15:10:26.852Z,16.80
2022-10-09T15:20:32.064Z,16.74
2022-10-09T15:30:35.789Z,16.48
2022-10-09T15:40:46.703Z,16.40
2022-10-09T15:50:53.436Z,16.20
2022-10-09T16:01:08.285Z,16.12
2022-10-09T16:11:14.660Z,15.92
2022-10-09T16:21:22.514Z,15.60
2022-10-09T16:31:30.505Z,15.08
2022-10-09T16:41:40.996Z,14.52
2022-10-09T16:51:45.726Z,14.07
2022-10-09T17:01:50.860Z,13.45
2022-10-09T17:11:54.477Z,12.99
2022-10-09T17:22:02.764Z,12.57
2022-10-09T17:32:08.032Z,12.11
2022-10-09T17:42:13.053Z,12.04
2022-10-09T17:52:16.917Z,11.77
2022-10-09T18:02:22.041Z,11.47
2022-10-09T18:12:25.749Z,11.35
2022-10-09T18:22:30.742Z,11.37
2022-10-09T18:32:34.440Z,11.22
2022-10-09T18:42:39.549Z,11.02
2022-10-09T18:52:44.305Z,10.76
2022-10-09T19:02:49.261Z,10.49
2022-10-09T19:12:54.300Z,10.29
2022-10-09T19:22:59.301Z,10.15
2022-10-09T19:33:03.007Z,9.99
2022-10-09T19:43:08.623Z,9.84
2022-10-09T19:53:14.221Z,9.70
2022-10-09T20:03:19.847Z,9.54
2022-10-09T20:13:29.961Z,9.39
2022-10-09T20:23:35.634Z,9.33
2022-10-09T20:33:40.397Z,9.14
2022-10-09T20:43:46.279Z,8.98
2022-10-09T20:53:55.757Z,8.99
2022-10-09T21:04:00.719Z,8.92
2022-10-09T21:14:04.676Z,8.84
2022-10-09T21:24:12.675Z,8.98
2022-10-09T21:34:16.298Z,8.99
2022-10-09T21:44:21.242Z,8.97
2022-10-09T21:54:25.431Z,8.76
2022-10-09T22:04:30.741Z,8.67
2022-10-09T22:14:34.443Z,8.49
2022-10-09T22:24:39.551Z,8.40
2022-10-09T22:34:44.644Z,8.34
2022-10-09T22:44:57.122Z,8.34
2022-10-09T22:55:03.483Z,8.36
2022-10-09T23:05:09.616Z,8.22
2022-10-09T23:15:13.306Z,8.20
2022-10-09T23:25:18.459Z,8.50
2022-10-09T23:35:22.033Z,8.31
2022-10-09T23:45:28.016Z,8.18
2022-10-09T23:55:31.610Z,8.07
